sensor_id;sensor_type;location;lat;lon;timestamp;temperature;humidity
354;DHT22;165;53.592;10.044;2023-02-22T20:14:06;9.30;99.90
354;DHT22;165;53.592;10.044;2023-02-22T20:16:32;9.30;99.90
354;DHT22;165;53.592;10.044;2023-02-22T20:18:58;9.30;99.90
354;DHT22;165;53.592;10.044;2023-02-22T20:21:29;9.20;99.90
354;DHT22;165;53.592;10.044;2023-02-22T20:23:56;9.20;99.90
354;DHT22;165;53.592;10.044;2023-02-22T20:26:23;9.20;99.90
354;DHT22;165;53.592;10.044;2023-02-22T20:28:50;9.20;99.90
354;DHT22;165;53.592;10.044;2023-02-22T20:31:16;9.20;99.90
354;DHT22;165;53.592;10.044;2023-02-22T20:33:43;9.20;99.90
354;DHT22;165;53.592;10.044;2023-02-22T20:36:10;9.20;99.90
354;DHT22;165;53.592;10.044;2023-02-22T20:38:37;9.20;99.90
354;DHT22;165;53.592;10.044;2023-02-22T20:41:13;9.20;99.90
354;DHT22;165;53.592;10.044;2023-02-22T20:43:39;9.20;99.90
354;DHT22;165;53.592;10.044;2023-02-22T20:46:08;9.20;99.90
354;DHT22;165;53.592;10.044;2023-02-22T20:48:34;9.20;99.90
354;DHT22;165;53.592;10.044;2023-02-22T20:51:07;9.10;99.90
354;DHT22;165;53.592;10.044;2023-02-22T20:53:33;9.10;99.90
354;DHT22;165;53.592;10.044;2023-02-22T20:55:59;9.00;99.90
354;DHT22;165;53.592;10.044;2023-02-22T20:58:24;9.00;99.90
354;DHT22;165;53.592;10.044;2023-02-22T21:00:50;9.00;99.90
354;DHT22;165;53.592;10.044;2023-02-22T21:03:16;9.00;99.90
354;DHT22;165;53.592;10.044;2023-02-22T21:05:43;8.90;99.90
354;DHT22;165;53.592;10.044;2023-02-22T21:08:08;8.90;99.90
354;DHT22;165;53.592;10.044;2023-02-22T21:10:40;8.90;99.90
354;DHT22;165;53.592;10.044;2023-02-22T21:13:05;8.90;99.90
354;DHT22;165;53.592;10.044;2023-02-22T21:15:35;8.90;99.90
354;DHT22;165;53.592;10.044;2023-02-22T21:18:01;8.90;99.90
354;DHT22;165;53.592;10.044;2023-02-22T21:20:34;8.90;99.90
354;DHT22;165;53.592;10.044;2023-02-22T21:23:00;9.00;99.90
354;DHT22;165;53.592;10.044;2023-02-22T21:25:25;9.00;99.90
354;DHT22;165;53.592;10.044;2023-02-22T21:27:51;8.90;99.90
354;DHT22;165;53.592;10.044;2023-02-22T21:30:17;8.90;99.90
354;DHT22;165;53.592;10.044;2023-02-22T21:32:42;8.90;99.90
354;DHT22;165;53.592;10.044;2023-02-22T21:35:28;8.90;99.90
354;DHT22;165;53.592;10.044;2023-02-22T21:37:53;8.90;99.90
354;DHT22;165;53.592;10.044;2023-02-22T21:40:19;8.90;99.90
354;DHT22;165;53.592;10.044;2023-02-22T21:42:46;8.90;99.90
354;DHT22;165;53.592;10.044;2023-02-22T21:45:11;8.90;99.90
354;DHT22;165;53.592;10.044;2023-02-22T21:47:37;8.90;99.90
354;DHT22;165;53.592;10.044;2023-02-22T21:50:02;8.90;99.90
354;DHT22;165;53.592;10.044;2023-02-22T21:52:28;8.90;99.90
354;DHT22;165;53.592;10.044;2023-02-22T21:54:53;8.80;99.90
354;DHT22;165;53.592;10.044;2023-02-22T21:57:19;8.80;99.90
354;DHT22;165;53.592;10.044;2023-02-22T21:59:44;8.80;99.90
354;DHT22;165;53.592;10.044;2023-02-22T22:02:10;8.80;99.90
354;DHT22;165;53.592;10.044;2023-02-22T22:04:35;8.80;99.90
354;DHT22;165;53.592;10.044;2023-02-22T22:07:01;8.80;99.90
354;DHT22;165;53.592;10.044;2023-02-22T22:09:28;8.80;99.90
354;DHT22;165;53.592;10.044;2023-02-22T22:11:56;8.80;99.90
354;DHT22;165;53.592;10.044;2023-02-22T22:14:23;8.80;99.90
354;DHT22;165;53.592;10.044;2023-02-22T22:16:51;8.80;99.90
354;DHT22;165;53.592;10.044;2023-02-22T22:19:16;8.80;99.90
354;DHT22;165;53.592;10.044;2023-02-22T22:21:42;8.80;99.90
354;DHT22;165;53.592;10.044;2023-02-22T22:24:09;8.80;99.90
354;DHT22;165;53.592;10.044;2023-02-22T22:26:35;8.80;99.90
354;DHT22;165;53.592;10.044;2023-02-22T22:29:01;8.80;99.90
354;DHT22;165;53.592;10.044;2023-02-22T22:31:26;8.70;99.90
354;DHT22;165;53.592;10.044;2023-02-22T22:33:53;8.70;99.90
354;DHT22;165;53.592;10.044;2023-02-22T22:36:20;8.70;99.90
354;DHT22;165;53.592;10.044;2023-02-22T22:38:46;8.70;99.90
354;DHT22;165;53.592;10.044;2023-02-22T22:41:14;8.70;99.90
354;DHT22;165;53.592;10.044;2023-02-22T22:43:40;8.70;99.90
354;DHT22;165;53.592;10.044;2023-02-22T22:46:07;8.70;99.90
354;DHT22;165;53.592;10.044;2023-02-22T22:48:34;8.70;99.90
354;DHT22;165;53.592;10.044;2023-02-22T22:51:05;8.70;99.90
354;DHT22;165;53.592;10.044;2023-02-22T22:53:33;8.70;99.90
354;DHT22;165;53.592;10.044;2023-02-22T22:56:00;8.70;99.90
354;DHT22;165;53.592;10.044;2023-02-22T22:58:26;8.60;99.90
354;DHT22;165;53.592;10.044;2023-02-22T23:00:51;8.60;99.90
354;DHT22;165;53.592;10.044;2023-02-22T23:03:17;8.60;99.90
354;DHT22;165;53.592;10.044;2023-02-22T23:05:42;8.50;99.90
354;DHT22;165;53.592;10.044;2023-02-22T23:08:08;8.50;99.90
354;DHT22;165;53.592;10.044;2023-02-22T23:10:36;8.50;99.90
354;DHT22;165;53.592;10.044;2023-02-22T23:13:02;8.50;99.90
354;DHT22;165;53.592;10.044;2023-02-22T23:15:27;8.40;99.90
354;DHT22;165;53.592;10.044;2023-02-22T23:17:53;8.40;99.90
354;DHT22;165;53.592;10.044;2023-02-22T23:20:18;8.40;99.90
354;DHT22;165;53.592;10.044;2023-02-22T23:22:44;8.30;99.90
354;DHT22;165;53.592;10.044;2023-02-22T23:25:09;8.30;99.90
354;DHT22;165;53.592;10.044;2023-02-22T23:27:35;8.30;99.90
354;DHT22;165;53.592;10.044;2023-02-22T23:30:00;8.20;99.90
354;DHT22;165;53.592;10.044;2023-02-22T23:32:26;8.20;99.90
354;DHT22;165;53.592;10.044;2023-02-22T23:34:51;8.10;99.90
354;DHT22;165;53.592;10.044;2023-02-22T23:37:17;8.10;99.90
354;DHT22;165;53.592;10.044;2023-02-22T23:39:42;8.10;99.90
354;DHT22;165;53.592;10.044;2023-02-22T23:42:08;8.10;99.90
354;DHT22;165;53.592;10.044;2023-02-22T23:44:33;8.10;99.90
354;DHT22;165;53.592;10.044;2023-02-22T23:46:59;8.10;99.90
354;DHT22;165;53.592;10.044;2023-02-22T23:49:26;8.10;99.90
354;DHT22;165;53.592;10.044;2023-02-22T23:51:52;8.10;99.90
354;DHT22;165;53.592;10.044;2023-02-22T23:54:19;8.10;99.90
354;DHT22;165;53.592;10.044;2023-02-22T23:56:49;8.10;99.90
354;DHT22;165;53.592;10.044;2023-02-22T23:59:14;8.00;99.90
